sensor_id;sensor_type;location;lat;lon;timestamp;P1;durP1;ratioP1;P2;durP2;ratioP2
47455;SDS011;33202;48.512;-2.780;2023-03-01T00:00:39;15.10;;;12.05;;
47455;SDS011;33202;48.512;-2.780;2023-03-01T00:03:06;16.70;;;12.25;;
47455;SDS011;33202;48.512;-2.780;2023-03-01T00:05:32;15.82;;;12.18;;
47455;SDS011;33202;48.512;-2.780;2023-03-01T00:07:58;17.88;;;13.82;;
47455;SDS011;33202;48.512;-2.780;2023-03-01T00:10:24;18.60;;;13.63;;
47455;SDS011;33202;48.512;-2.780;2023-03-01T00:12:50;19.85;;;13.95;;
47455;SDS011;33202;48.512;-2.780;2023-03-01T00:15:16;19.80;;;13.98;;
47455;SDS011;33202;48.512;-2.780;2023-03-01T00:17:42;22.20;;;14.98;;
47455;SDS011;33202;48.512;-2.780;2023-03-01T00:20:08;18.20;;;14.23;;
47455;SDS011;33202;48.512;-2.780;2023-03-01T00:22:35;19.77;;;14.10;;
47455;SDS011;33202;48.512;-2.780;2023-03-01T00:25:02;19.77;;;14.70;;
47455;SDS011;33202;48.512;-2.780;2023-03-01T00:27:28;21.67;;;15.55;;
47455;SDS011;33202;48.512;-2.780;2023-03-01T00:29:54;19.63;;;15.07;;
47455;SDS011;33202;48.512;-2.780;2023-03-01T00:32:20;20.50;;;15.10;;
47455;SDS011;33202;48.512;-2.780;2023-03-01T00:34:46;19.40;;;14.82;;
47455;SDS011;33202;48.512;-2.780;2023-03-01T00:37:20;21.70;;;16.38;;
47455;SDS011;33202;48.512;-2.780;2023-03-01T00:39:46;20.30;;;14.52;;
47455;SDS011;33202;48.512;-2.780;2023-03-01T00:42:12;20.88;;;14.65;;
47455;SDS011;33202;48.512;-2.780;2023-03-01T00:44:38;21.63;;;15.48;;
47455;SDS011;33202;48.512;-2.780;2023-03-01T00:47:04;22.27;;;15.85;;
47455;SDS011;33202;48.512;-2.780;2023-03-01T00:49:30;21.25;;;15.27;;
47455;SDS011;33202;48.512;-2.780;2023-03-01T00:51:56;21.77;;;14.73;;
47455;SDS011;33202;48.512;-2.780;2023-03-01T00:54:22;23.77;;;15.05;;
47455;SDS011;33202;48.512;-2.780;2023-03-01T00:56:48;22.67;;;16.02;;
47455;SDS011;33202;48.512;-2.780;2023-03-01T00:59:14;20.25;;;16.02;;
47455;SDS011;33202;48.512;-2.780;2023-03-01T01:01:40;18.88;;;14.80;;
47455;SDS011;33202;48.512;-2.780;2023-03-01T01:04:07;22.30;;;15.90;;
47455;SDS011;33202;48.512;-2.780;2023-03-01T01:06:34;28.92;;;17.38;;
47455;SDS011;33202;48.512;-2.780;2023-03-01T01:09:02;20.38;;;15.90;;
47455;SDS011;33202;48.512;-2.780;2023-03-01T01:11:28;24.05;;;17.55;;
47455;SDS011;33202;48.512;-2.780;2023-03-01T01:13:55;21.95;;;16.20;;
47455;SDS011;33202;48.512;-2.780;2023-03-01T01:16:22;22.17;;;16.70;;
47455;SDS011;33202;48.512;-2.780;2023-03-01T01:18:48;21.53;;;16.77;;
47455;SDS011;33202;48.512;-2.780;2023-03-01T01:21:16;20.35;;;15.57;;
47455;SDS011;33202;48.512;-2.780;2023-03-01T01:23:42;21.50;;;16.30;;
47455;SDS011;33202;48.512;-2.780;2023-03-01T01:26:10;24.33;;;16.40;;
47455;SDS011;33202;48.512;-2.780;2023-03-01T01:28:36;22.10;;;15.40;;
47455;SDS011;33202;48.512;-2.780;2023-03-01T01:31:02;19.95;;;15.07;;
47455;SDS011;33202;48.512;-2.780;2023-03-01T01:33:29;19.63;;;15.98;;
47455;SDS011;33202;48.512;-2.780;2023-03-01T01:35:55;19.23;;;15.40;;
47455;SDS011;33202;48.512;-2.780;2023-03-01T01:38:21;19.40;;;14.88;;
47455;SDS011;33202;48.512;-2.780;2023-03-01T01:40:48;19.05;;;14.88;;
47455;SDS011;33202;48.512;-2.780;2023-03-01T01:43:21;20.63;;;14.50;;
47455;SDS011;33202;48.512;-2.780;2023-03-01T01:45:48;18.88;;;14.02;;
47455;SDS011;33202;48.512;-2.780;2023-03-01T01:48:16;18.15;;;13.75;;
47455;SDS011;33202;48.512;-2.780;2023-03-01T01:50:43;20.83;;;14.45;;
47455;SDS011;33202;48.512;-2.780;2023-03-01T01:53:11;19.25;;;14.43;;
47455;SDS011;33202;48.512;-2.780;2023-03-01T01:55:39;17.10;;;13.50;;
47455;SDS011;33202;48.512;-2.780;2023-03-01T01:58:06;17.83;;;13.80;;
47455;SDS011;33202;48.512;-2.780;2023-03-01T02:00:33;18.58;;;13.63;;
47455;SDS011;33202;48.512;-2.780;2023-03-01T02:03:03;17.50;;;13.68;;
47455;SDS011;33202;48.512;-2.780;2023-03-01T02:08:02;19.13;;;14.88;;
47455;SDS011;33202;48.512;-2.780;2023-03-01T02:10:29;19.65;;;13.93;;
47455;SDS011;33202;48.512;-2.780;2023-03-01T02:12:55;20.05;;;13.63;;
47455;SDS011;33202;48.512;-2.780;2023-03-01T02:15:22;17.45;;;13.70;;
47455;SDS011;33202;48.512;-2.780;2023-03-01T02:17:48;20.23;;;14.48;;
47455;SDS011;33202;48.512;-2.780;2023-03-01T02:20:33;18.50;;;14.77;;
47455;SDS011;33202;48.512;-2.780;2023-03-01T02:23:00;17.77;;;14.40;;
47455;SDS011;33202;48.512;-2.780;2023-03-01T02:30:21;21.25;;;14.80;;
47455;SDS011;33202;48.512;-2.780;2023-03-01T02:32:48;19.75;;;14.75;;
47455;SDS011;33202;48.512;-2.780;2023-03-01T02:35:14;21.50;;;14.73;;
47455;SDS011;33202;48.512;-2.780;2023-03-01T02:37:42;20.42;;;14.13;;
47455;SDS011;33202;48.512;-2.780;2023-03-01T02:40:09;20.70;;;15.13;;
47455;SDS011;33202;48.512;-2.780;2023-03-01T02:42:40;19.95;;;14.90;;
47455;SDS011;33202;48.512;-2.780;2023-03-01T02:45:07;20.30;;;15.38;;
47455;SDS011;33202;48.512;-2.780;2023-03-01T02:47:35;18.33;;;14.35;;
47455;SDS011;33202;48.512;-2.780;2023-03-01T02:50:01;19.60;;;15.02;;
47455;SDS011;33202;48.512;-2.780;2023-03-01T02:52:46;20.60;;;14.57;;
47455;SDS011;33202;48.512;-2.780;2023-03-01T02:55:13;20.05;;;14.88;;
47455;SDS011;33202;48.512;-2.780;2023-03-01T02:57:40;19.15;;;14.77;;
47455;SDS011;33202;48.512;-2.780;2023-03-01T03:00:09;19.85;;;14.70;;
47455;SDS011;33202;48.512;-2.780;2023-03-01T03:02:43;19.75;;;15.20;;
47455;SDS011;33202;48.512;-2.780;2023-03-01T03:05:15;21.00;;;15.23;;
47455;SDS011;33202;48.512;-2.780;2023-03-01T03:07:42;19.60;;;15.05;;
47455;SDS011;33202;48.512;-2.780;2023-03-01T03:10:10;19.35;;;14.88;;
47455;SDS011;33202;48.512;-2.780;2023-03-01T03:12:36;19.52;;;14.68;;
47455;SDS011;33202;48.512;-2.780;2023-03-01T03:15:03;20.90;;;14.60;;
47455;SDS011;33202;48.512;-2.780;2023-03-01T03:17:33;17.63;;;14.38;;
47455;SDS011;33202;48.512;-2.780;2023-03-01T03:19:59;18.42;;;14.85;;
47455;SDS011;33202;48.512;-2.780;2023-03-01T03:22:25;21.67;;;15.13;;
47455;SDS011;33202;48.512;-2.780;2023-03-01T03:24:53;18.08;;;13.98;;
47455;SDS011;33202;48.512;-2.780;2023-03-01T03:27:19;18.52;;;13.68;;
47455;SDS011;33202;48.512;-2.780;2023-03-01T03:29:45;19.45;;;14.55;;
47455;SDS011;33202;48.512;-2.780;2023-03-01T03:32:11;18.17;;;13.55;;
47455;SDS011;33202;48.512;-2.780;2023-03-01T03:34:37;17.65;;;13.38;;
47455;SDS011;33202;48.512;-2.780;2023-03-01T03:37:03;18.17;;;14.18;;
47455;SDS011;33202;48.512;-2.780;2023-03-01T03:39:49;18.25;;;13.60;;
47455;SDS011;33202;48.512;-2.780;2023-03-01T03:42:19;16.50;;;13.25;;
47455;SDS011;33202;48.512;-2.780;2023-03-01T03:44:45;17.83;;;13.27;;
47455;SDS011;33202;48.512;-2.780;2023-03-01T03:47:11;17.17;;;13.10;;
47455;SDS011;33202;48.512;-2.780;2023-03-01T03:49:37;16.65;;;12.70;;
47455;SDS011;33202;48.512;-2.780;2023-03-01T03:52:03;16.25;;;12.35;;
47455;SDS011;33202;48.512;-2.780;2023-03-01T03:54:29;15.45;;;12.45;;
47455;SDS011;33202;48.512;-2.780;2023-03-01T03:56:55;15.35;;;12.15;;
47455;SDS011;33202;48.512;-2.780;2023-03-01T03:59:21;15.60;;;11.77;;
47455;SDS011;33202;48.512;-2.780;2023-03-01T04:01:47;14.13;;;11.15;;
47455;SDS011;33202;48.512;-2.780;2023-03-01T04:04:13;15.15;;;11.55;;
47455;SDS011;33202;48.512;-2.780;2023-03-01T04:06:42;14.50;;;11.32;;
47455;SDS011;33202;48.512;-2.780;2023-03-01T04:09:08;16.15;;;11.43;;
47455;SDS011;33202;48.512;-2.780;2023-03-01T04:11:34;14.40;;;11.13;;
47455;SDS011;33202;48.512;-2.780;2023-03-01T04:14:00;14.38;;;10.88;;
47455;SDS011;33202;48.512;-2.780;2023-03-01T04:16:29;13.63;;;10.70;;
47455;SDS011;33202;48.512;-2.780;2023-03-01T04:18:55;16.15;;;10.82;;
47455;SDS011;33202;48.512;-2.780;2023-03-01T04:21:21;14.30;;;11.60;;
47455;SDS011;33202;48.512;-2.780;2023-03-01T04:23:47;15.90;;;11.52;;
47455;SDS011;33202;48.512;-2.780;2023-03-01T04:26:17;17.17;;;11.52;;
47455;SDS011;33202;48.512;-2.780;2023-03-01T04:28:43;13.52;;;10.55;;
47455;SDS011;33202;48.512;-2.780;2023-03-01T04:31:11;15.75;;;10.90;;
47455;SDS011;33202;48.512;-2.780;2023-03-01T04:33:42;13.93;;;11.23;;
47455;SDS011;33202;48.512;-2.780;2023-03-01T04:36:09;17.25;;;12.10;;
47455;SDS011;33202;48.512;-2.780;2023-03-01T04:38:39;13.90;;;10.70;;
47455;SDS011;33202;48.512;-2.780;2023-03-01T04:41:06;15.63;;;11.23;;
47455;SDS011;33202;48.512;-2.780;2023-03-01T04:43:32;18.17;;;11.45;;
47455;SDS011;33202;48.512;-2.780;2023-03-01T04:46:09;13.98;;;10.35;;
47455;SDS011;33202;48.512;-2.780;2023-03-01T04:48:37;17.70;;;11.63;;
47455;SDS011;33202;48.512;-2.780;2023-03-01T04:51:03;18.52;;;11.90;;
47455;SDS011;33202;48.512;-2.780;2023-03-01T04:53:29;13.90;;;10.93;;
47455;SDS011;33202;48.512;-2.780;2023-03-01T04:55:56;15.77;;;11.02;;
47455;SDS011;33202;48.512;-2.780;2023-03-01T04:58:22;16.30;;;11.32;;
47455;SDS011;33202;48.512;-2.780;2023-03-01T05:00:49;15.07;;;11.75;;
47455;SDS011;33202;48.512;-2.780;2023-03-01T05:03:15;16.00;;;11.80;;
47455;SDS011;33202;48.512;-2.780;2023-03-01T05:05:43;14.85;;;10.60;;
47455;SDS011;33202;48.512;-2.780;2023-03-01T05:08:09;14.45;;;10.75;;
47455;SDS011;33202;48.512;-2.780;2023-03-01T05:10:42;14.90;;;10.60;;
47455;SDS011;33202;48.512;-2.780;2023-03-01T05:13:08;14.35;;;11.02;;
47455;SDS011;33202;48.512;-2.780;2023-03-01T05:15:34;15.73;;;10.60;;
47455;SDS011;33202;48.512;-2.780;2023-03-01T05:18:01;13.98;;;10.27;;
47455;SDS011;33202;48.512;-2.780;2023-03-01T05:20:28;16.35;;;10.98;;
47455;SDS011;33202;48.512;-2.780;2023-03-01T05:22:55;16.40;;;10.23;;
47455;SDS011;33202;48.512;-2.780;2023-03-01T05:25:22;11.95;;;9.25;;
47455;SDS011;33202;48.512;-2.780;2023-03-01T05:27:48;13.20;;;9.68;;
47455;SDS011;33202;48.512;-2.780;2023-03-01T05:30:14;14.60;;;10.00;;
47455;SDS011;33202;48.512;-2.780;2023-03-01T05:32:44;14.05;;;9.75;;
47455;SDS011;33202;48.512;-2.780;2023-03-01T05:35:11;13.75;;;8.98;;
47455;SDS011;33202;48.512;-2.780;2023-03-01T05:37:38;16.13;;;9.63;;
47455;SDS011;33202;48.512;-2.780;2023-03-01T05:40:05;10.85;;;8.63;;
47455;SDS011;33202;48.512;-2.780;2023-03-01T05:42:32;11.45;;;8.55;;
47455;SDS011;33202;48.512;-2.780;2023-03-01T05:44:58;11.07;;;8.40;;
47455;SDS011;33202;48.512;-2.780;2023-03-01T05:47:24;12.68;;;8.48;;
47455;SDS011;33202;48.512;-2.780;2023-03-01T05:49:50;11.00;;;8.02;;
47455;SDS011;33202;48.512;-2.780;2023-03-01T05:52:16;12.18;;;8.05;;
47455;SDS011;33202;48.512;-2.780;2023-03-01T05:54:42;10.93;;;8.07;;
47455;SDS011;33202;48.512;-2.780;2023-03-01T05:57:08;10.30;;;7.90;;
47455;SDS011;33202;48.512;-2.780;2023-03-01T05:59:35;11.32;;;7.43;;
47455;SDS011;33202;48.512;-2.780;2023-03-01T06:02:01;11.25;;;7.40;;
47455;SDS011;33202;48.512;-2.780;2023-03-01T06:04:27;13.93;;;8.15;;
47455;SDS011;33202;48.512;-2.780;2023-03-01T06:06:53;12.95;;;8.48;;
47455;SDS011;33202;48.512;-2.780;2023-03-01T06:09:19;13.02;;;8.20;;
47455;SDS011;33202;48.512;-2.780;2023-03-01T06:11:45;11.65;;;7.30;;
47455;SDS011;33202;48.512;-2.780;2023-03-01T06:14:11;10.23;;;7.20;;
47455;SDS011;33202;48.512;-2.780;2023-03-01T06:16:39;10.25;;;6.93;;
47455;SDS011;33202;48.512;-2.780;2023-03-01T06:19:05;11.55;;;7.28;;
47455;SDS011;33202;48.512;-2.780;2023-03-01T06:21:31;10.63;;;7.30;;
47455;SDS011;33202;48.512;-2.780;2023-03-01T06:23:57;9.73;;;7.22;;
47455;SDS011;33202;48.512;-2.780;2023-03-01T06:26:23;9.52;;;7.13;;
47455;SDS011;33202;48.512;-2.780;2023-03-01T06:28:49;10.73;;;7.50;;
47455;SDS011;33202;48.512;-2.780;2023-03-01T06:31:16;13.25;;;7.78;;
47455;SDS011;33202;48.512;-2.780;2023-03-01T06:33:42;12.00;;;7.78;;
47455;SDS011;33202;48.512;-2.780;2023-03-01T06:36:09;11.43;;;7.50;;
47455;SDS011;33202;48.512;-2.780;2023-03-01T06:38:35;11.35;;;7.70;;
47455;SDS011;33202;48.512;-2.780;2023-03-01T06:41:01;10.77;;;7.55;;
47455;SDS011;33202;48.512;-2.780;2023-03-01T06:43:28;12.70;;;8.00;;
47455;SDS011;33202;48.512;-2.780;2023-03-01T06:45:54;10.63;;;7.25;;
47455;SDS011;33202;48.512;-2.780;2023-03-01T06:48:20;9.75;;;7.25;;
47455;SDS011;33202;48.512;-2.780;2023-03-01T06:50:46;11.75;;;7.90;;
47455;SDS011;33202;48.512;-2.780;2023-03-01T06:53:12;12.10;;;7.68;;
47455;SDS011;33202;48.512;-2.780;2023-03-01T06:55:38;11.63;;;8.32;;
47455;SDS011;33202;48.512;-2.780;2023-03-01T06:58:04;10.32;;;7.45;;
47455;SDS011;33202;48.512;-2.780;2023-03-01T07:00:30;11.60;;;7.95;;
47455;SDS011;33202;48.512;-2.780;2023-03-01T07:03:00;12.73;;;9.13;;
47455;SDS011;33202;48.512;-2.780;2023-03-01T07:05:27;10.85;;;8.10;;
47455;SDS011;33202;48.512;-2.780;2023-03-01T07:07:53;10.30;;;7.88;;
47455;SDS011;33202;48.512;-2.780;2023-03-01T07:12:47;13.52;;;8.50;;
47455;SDS011;33202;48.512;-2.780;2023-03-01T07:15:13;14.10;;;7.55;;
47455;SDS011;33202;48.512;-2.780;2023-03-01T07:17:40;12.80;;;8.13;;
47455;SDS011;33202;48.512;-2.780;2023-03-01T07:20:06;14.27;;;8.88;;
47455;SDS011;33202;48.512;-2.780;2023-03-01T07:22:32;14.15;;;8.80;;
47455;SDS011;33202;48.512;-2.780;2023-03-01T07:24:58;12.27;;;8.27;;
47455;SDS011;33202;48.512;-2.780;2023-03-01T07:27:24;14.07;;;8.38;;
47455;SDS011;33202;48.512;-2.780;2023-03-01T07:29:50;15.52;;;8.57;;
47455;SDS011;33202;48.512;-2.780;2023-03-01T07:32:16;15.05;;;8.93;;
47455;SDS011;33202;48.512;-2.780;2023-03-01T07:34:42;13.95;;;9.70;;
47455;SDS011;33202;48.512;-2.780;2023-03-01T07:37:08;12.90;;;8.80;;
47455;SDS011;33202;48.512;-2.780;2023-03-01T07:39:34;13.18;;;8.65;;
47455;SDS011;33202;48.512;-2.780;2023-03-01T07:42:00;17.38;;;9.68;;
47455;SDS011;33202;48.512;-2.780;2023-03-01T07:44:26;12.38;;;8.93;;
47455;SDS011;33202;48.512;-2.780;2023-03-01T07:46:53;14.40;;;9.60;;
47455;SDS011;33202;48.512;-2.780;2023-03-01T07:49:21;13.43;;;9.02;;
47455;SDS011;33202;48.512;-2.780;2023-03-01T07:51:47;15.63;;;10.07;;
47455;SDS011;33202;48.512;-2.780;2023-03-01T07:54:13;14.25;;;10.00;;
47455;SDS011;33202;48.512;-2.780;2023-03-01T07:56:39;14.45;;;9.63;;
47455;SDS011;33202;48.512;-2.780;2023-03-01T07:59:05;16.00;;;10.75;;
47455;SDS011;33202;48.512;-2.780;2023-03-01T08:01:31;17.30;;;11.05;;
47455;SDS011;33202;48.512;-2.780;2023-03-01T08:03:57;15.90;;;9.98;;
47455;SDS011;33202;48.512;-2.780;2023-03-01T08:06:23;16.20;;;10.63;;
47455;SDS011;33202;48.512;-2.780;2023-03-01T08:08:49;17.35;;;12.05;;
47455;SDS011;33202;48.512;-2.780;2023-03-01T08:11:15;16.17;;;11.07;;
47455;SDS011;33202;48.512;-2.780;2023-03-01T08:13:42;16.58;;;11.43;;
47455;SDS011;33202;48.512;-2.780;2023-03-01T08:16:13;17.13;;;11.63;;
47455;SDS011;33202;48.512;-2.780;2023-03-01T08:18:39;19.83;;;11.77;;
47455;SDS011;33202;48.512;-2.780;2023-03-01T08:21:06;17.63;;;12.10;;
47455;SDS011;33202;48.512;-2.780;2023-03-01T08:23:33;18.45;;;11.25;;
47455;SDS011;33202;48.512;-2.780;2023-03-01T08:26:03;18.02;;;12.38;;
47455;SDS011;33202;48.512;-2.780;2023-03-01T08:28:29;17.70;;;11.98;;
47455;SDS011;33202;48.512;-2.780;2023-03-01T08:30:55;20.02;;;12.32;;
47455;SDS011;33202;48.512;-2.780;2023-03-01T08:33:21;22.30;;;13.15;;
47455;SDS011;33202;48.512;-2.780;2023-03-01T08:35:47;19.23;;;12.13;;
47455;SDS011;33202;48.512;-2.780;2023-03-01T08:38:13;21.73;;;12.57;;
47455;SDS011;33202;48.512;-2.780;2023-03-01T08:40:38;20.23;;;12.80;;
47455;SDS011;33202;48.512;-2.780;2023-03-01T08:43:04;21.38;;;13.65;;
47455;SDS011;33202;48.512;-2.780;2023-03-01T08:45:30;24.23;;;12.82;;
47455;SDS011;33202;48.512;-2.780;2023-03-01T08:47:56;19.02;;;12.85;;
47455;SDS011;33202;48.512;-2.780;2023-03-01T08:50:23;16.27;;;11.85;;
47455;SDS011;33202;48.512;-2.780;2023-03-01T08:52:49;21.73;;;13.25;;
47455;SDS011;33202;48.512;-2.780;2023-03-01T08:55:15;20.65;;;13.05;;
47455;SDS011;33202;48.512;-2.780;2023-03-01T08:57:42;19.00;;;13.10;;
47455;SDS011;33202;48.512;-2.780;2023-03-01T09:00:09;21.55;;;14.05;;
47455;SDS011;33202;48.512;-2.780;2023-03-01T09:05:02;18.52;;;13.02;;
47455;SDS011;33202;48.512;-2.780;2023-03-01T09:07:28;19.98;;;13.55;;
47455;SDS011;33202;48.512;-2.780;2023-03-01T09:09:54;20.52;;;13.82;;
47455;SDS011;33202;48.512;-2.780;2023-03-01T09:12:20;21.55;;;13.98;;
47455;SDS011;33202;48.512;-2.780;2023-03-01T09:14:47;21.83;;;14.40;;
47455;SDS011;33202;48.512;-2.780;2023-03-01T09:17:13;19.42;;;13.65;;
47455;SDS011;33202;48.512;-2.780;2023-03-01T09:19:39;21.25;;;14.02;;
47455;SDS011;33202;48.512;-2.780;2023-03-01T09:22:05;20.17;;;13.75;;
47455;SDS011;33202;48.512;-2.780;2023-03-01T09:24:31;20.67;;;14.02;;
47455;SDS011;33202;48.512;-2.780;2023-03-01T09:26:57;20.63;;;13.40;;
47455;SDS011;33202;48.512;-2.780;2023-03-01T09:29:23;24.73;;;14.85;;
47455;SDS011;33202;48.512;-2.780;2023-03-01T09:31:49;28.55;;;15.15;;
47455;SDS011;33202;48.512;-2.780;2023-03-01T09:34:15;21.67;;;14.40;;
47455;SDS011;33202;48.512;-2.780;2023-03-01T09:36:44;21.20;;;13.95;;
47455;SDS011;33202;48.512;-2.780;2023-03-01T09:39:10;22.70;;;13.68;;
47455;SDS011;33202;48.512;-2.780;2023-03-01T09:46:59;20.60;;;14.02;;
47455;SDS011;33202;48.512;-2.780;2023-03-01T09:49:27;21.48;;;14.35;;
47455;SDS011;33202;48.512;-2.780;2023-03-01T09:54:27;23.80;;;16.13;;
47455;SDS011;33202;48.512;-2.780;2023-03-01T10:07:05;23.30;;;14.70;;
47455;SDS011;33202;48.512;-2.780;2023-03-01T10:09:38;22.25;;;15.07;;
47455;SDS011;33202;48.512;-2.780;2023-03-01T10:12:07;22.95;;;15.00;;
47455;SDS011;33202;48.512;-2.780;2023-03-01T10:14:39;20.20;;;14.55;;
47455;SDS011;33202;48.512;-2.780;2023-03-01T10:17:12;22.88;;;16.30;;
47455;SDS011;33202;48.512;-2.780;2023-03-01T10:19:44;28.60;;;16.77;;
47455;SDS011;33202;48.512;-2.780;2023-03-01T10:24:36;25.35;;;15.90;;
47455;SDS011;33202;48.512;-2.780;2023-03-01T10:27:07;25.25;;;15.30;;
47455;SDS011;33202;48.512;-2.780;2023-03-01T10:29:37;24.50;;;15.93;;
47455;SDS011;33202;48.512;-2.780;2023-03-01T10:32:05;24.35;;;16.15;;
47455;SDS011;33202;48.512;-2.780;2023-03-01T10:34:32;23.45;;;15.75;;
47455;SDS011;33202;48.512;-2.780;2023-03-01T10:37:12;26.10;;;16.17;;
47455;SDS011;33202;48.512;-2.780;2023-03-01T10:39:55;21.83;;;15.25;;
47455;SDS011;33202;48.512;-2.780;2023-03-01T10:42:26;24.38;;;15.50;;
47455;SDS011;33202;48.512;-2.780;2023-03-01T10:44:53;22.92;;;14.35;;
47455;SDS011;33202;48.512;-2.780;2023-03-01T10:47:20;25.83;;;16.02;;
47455;SDS011;33202;48.512;-2.780;2023-03-01T10:49:54;26.92;;;15.55;;
47455;SDS011;33202;48.512;-2.780;2023-03-01T10:52:23;21.80;;;15.45;;
47455;SDS011;33202;48.512;-2.780;2023-03-01T10:54:56;22.52;;;15.25;;
47455;SDS011;33202;48.512;-2.780;2023-03-01T10:57:30;21.88;;;14.45;;
47455;SDS011;33202;48.512;-2.780;2023-03-01T11:00:29;25.77;;;15.85;;
47455;SDS011;33202;48.512;-2.780;2023-03-01T11:02:49;28.20;;;16.05;;
47455;SDS011;33202;48.512;-2.780;2023-03-01T11:05:19;22.20;;;15.48;;
47455;SDS011;33202;48.512;-2.780;2023-03-01T11:07:49;20.52;;;14.63;;
47455;SDS011;33202;48.512;-2.780;2023-03-01T11:10:19;28.50;;;16.77;;
47455;SDS011;33202;48.512;-2.780;2023-03-01T11:12:45;28.67;;;16.98;;
47455;SDS011;33202;48.512;-2.780;2023-03-01T11:15:25;22.23;;;15.90;;
47455;SDS011;33202;48.512;-2.780;2023-03-01T11:17:52;24.98;;;15.85;;
47455;SDS011;33202;48.512;-2.780;2023-03-01T11:20:35;24.70;;;16.30;;
47455;SDS011;33202;48.512;-2.780;2023-03-01T11:23:05;21.98;;;16.05;;
47455;SDS011;33202;48.512;-2.780;2023-03-01T11:25:35;21.42;;;15.88;;
47455;SDS011;33202;48.512;-2.780;2023-03-01T11:28:03;24.70;;;16.35;;
47455;SDS011;33202;48.512;-2.780;2023-03-01T11:33:19;25.83;;;16.80;;
47455;SDS011;33202;48.512;-2.780;2023-03-01T11:36:00;24.55;;;15.75;;
47455;SDS011;33202;48.512;-2.780;2023-03-01T11:38:28;22.63;;;16.17;;
47455;SDS011;33202;48.512;-2.780;2023-03-01T11:40:57;24.17;;;14.88;;
47455;SDS011;33202;48.512;-2.780;2023-03-01T11:43:31;23.75;;;16.33;;
47455;SDS011;33202;48.512;-2.780;2023-03-01T11:48:37;22.30;;;15.23;;
47455;SDS011;33202;48.512;-2.780;2023-03-01T11:51:22;24.17;;;15.18;;
47455;SDS011;33202;48.512;-2.780;2023-03-01T11:56:35;26.35;;;15.63;;
47455;SDS011;33202;48.512;-2.780;2023-03-01T12:01:51;20.70;;;15.93;;
47455;SDS011;33202;48.512;-2.780;2023-03-01T12:04:46;26.10;;;15.77;;
47455;SDS011;33202;48.512;-2.780;2023-03-01T12:12:56;23.60;;;16.50;;
47455;SDS011;33202;48.512;-2.780;2023-03-01T12:23:00;22.05;;;15.88;;
47455;SDS011;33202;48.512;-2.780;2023-03-01T12:35:43;29.45;;;17.58;;
47455;SDS011;33202;48.512;-2.780;2023-03-01T12:40:41;25.58;;;16.92;;
47455;SDS011;33202;48.512;-2.780;2023-03-01T12:45:54;24.13;;;17.23;;
47455;SDS011;33202;48.512;-2.780;2023-03-01T12:50:51;23.63;;;16.55;;
47455;SDS011;33202;48.512;-2.780;2023-03-01T12:53:25;25.95;;;17.50;;
47455;SDS011;33202;48.512;-2.780;2023-03-01T12:55:52;24.92;;;17.05;;
47455;SDS011;33202;48.512;-2.780;2023-03-01T13:09:18;33.30;;;22.00;;
47455;SDS011;33202;48.512;-2.780;2023-03-01T13:11:46;22.87;;;17.40;;
47455;SDS011;33202;48.512;-2.780;2023-03-01T13:16:52;28.13;;;17.65;;
47455;SDS011;33202;48.512;-2.780;2023-03-01T13:19:22;27.88;;;19.13;;
47455;SDS011;33202;48.512;-2.780;2023-03-01T13:21:49;23.00;;;17.30;;
47455;SDS011;33202;48.512;-2.780;2023-03-01T13:32:21;29.15;;;17.88;;
47455;SDS011;33202;48.512;-2.780;2023-03-01T13:34:49;28.60;;;18.15;;
47455;SDS011;33202;48.512;-2.780;2023-03-01T13:37:19;24.25;;;17.85;;
47455;SDS011;33202;48.512;-2.780;2023-03-01T13:39:45;25.73;;;17.70;;
47455;SDS011;33202;48.512;-2.780;2023-03-01T13:42:32;25.17;;;17.90;;
47455;SDS011;33202;48.512;-2.780;2023-03-01T13:44:59;25.10;;;18.00;;
47455;SDS011;33202;48.512;-2.780;2023-03-01T13:47:25;25.10;;;17.67;;
47455;SDS011;33202;48.512;-2.780;2023-03-01T13:49:56;24.60;;;18.10;;
47455;SDS011;33202;48.512;-2.780;2023-03-01T13:54:58;24.80;;;17.88;;
47455;SDS011;33202;48.512;-2.780;2023-03-01T13:57:30;25.75;;;18.70;;
47455;SDS011;33202;48.512;-2.780;2023-03-01T13:59:58;25.83;;;17.25;;
47455;SDS011;33202;48.512;-2.780;2023-03-01T14:02:24;22.38;;;18.13;;
47455;SDS011;33202;48.512;-2.780;2023-03-01T14:04:59;23.38;;;18.35;;
47455;SDS011;33202;48.512;-2.780;2023-03-01T14:07:27;24.75;;;17.70;;
47455;SDS011;33202;48.512;-2.780;2023-03-01T14:09:57;28.17;;;19.15;;
47455;SDS011;33202;48.512;-2.780;2023-03-01T14:17:31;24.55;;;18.00;;
47455;SDS011;33202;48.512;-2.780;2023-03-01T14:20:02;25.38;;;18.17;;
47455;SDS011;33202;48.512;-2.780;2023-03-01T14:22:33;25.63;;;18.67;;
47455;SDS011;33202;48.512;-2.780;2023-03-01T14:27:26;25.00;;;18.10;;
47455;SDS011;33202;48.512;-2.780;2023-03-01T14:29:57;25.95;;;18.67;;
47455;SDS011;33202;48.512;-2.780;2023-03-01T14:32:25;22.85;;;17.63;;
47455;SDS011;33202;48.512;-2.780;2023-03-01T14:34:51;21.38;;;18.25;;
47455;SDS011;33202;48.512;-2.780;2023-03-01T14:37:22;21.85;;;17.55;;
47455;SDS011;33202;48.512;-2.780;2023-03-01T14:39:48;24.05;;;17.17;;
47455;SDS011;33202;48.512;-2.780;2023-03-01T14:42:14;24.33;;;16.15;;
47455;SDS011;33202;48.512;-2.780;2023-03-01T14:44:45;21.48;;;15.07;;
47455;SDS011;33202;48.512;-2.780;2023-03-01T14:47:12;21.70;;;15.52;;
47455;SDS011;33202;48.512;-2.780;2023-03-01T14:49:40;18.35;;;15.23;;
47455;SDS011;33202;48.512;-2.780;2023-03-01T14:52:07;21.83;;;15.65;;
47455;SDS011;33202;48.512;-2.780;2023-03-01T14:54:44;17.95;;;14.10;;
47455;SDS011;33202;48.512;-2.780;2023-03-01T14:57:16;21.83;;;15.25;;
47455;SDS011;33202;48.512;-2.780;2023-03-01T14:59:42;21.08;;;14.95;;
47455;SDS011;33202;48.512;-2.780;2023-03-01T15:02:11;24.30;;;15.97;;
47455;SDS011;33202;48.512;-2.780;2023-03-01T15:04:41;20.27;;;14.32;;
47455;SDS011;33202;48.512;-2.780;2023-03-01T15:07:09;21.20;;;14.48;;
47455;SDS011;33202;48.512;-2.780;2023-03-01T15:09:36;19.55;;;15.27;;
47455;SDS011;33202;48.512;-2.780;2023-03-01T15:12:47;22.60;;;15.38;;
47455;SDS011;33202;48.512;-2.780;2023-03-01T15:14:49;23.05;;;14.90;;
47455;SDS011;33202;48.512;-2.780;2023-03-01T15:17:35;20.65;;;14.52;;
47455;SDS011;33202;48.512;-2.780;2023-03-01T15:20:02;21.88;;;14.93;;
47455;SDS011;33202;48.512;-2.780;2023-03-01T15:22:29;19.45;;;14.75;;
47455;SDS011;33202;48.512;-2.780;2023-03-01T15:24:55;21.42;;;15.73;;
47455;SDS011;33202;48.512;-2.780;2023-03-01T15:27:23;19.85;;;14.48;;
47455;SDS011;33202;48.512;-2.780;2023-03-01T15:29:53;22.27;;;14.93;;
47455;SDS011;33202;48.512;-2.780;2023-03-01T15:32:36;21.25;;;15.05;;
47455;SDS011;33202;48.512;-2.780;2023-03-01T15:37:49;19.90;;;14.90;;
47455;SDS011;33202;48.512;-2.780;2023-03-01T15:42:49;19.10;;;14.77;;
47455;SDS011;33202;48.512;-2.780;2023-03-01T15:47:55;19.00;;;14.30;;
47455;SDS011;33202;48.512;-2.780;2023-03-01T15:50:36;22.20;;;15.57;;
47455;SDS011;33202;48.512;-2.780;2023-03-01T15:53:06;21.77;;;14.40;;
47455;SDS011;33202;48.512;-2.780;2023-03-01T15:55:35;21.73;;;15.40;;
47455;SDS011;33202;48.512;-2.780;2023-03-01T16:00:27;18.50;;;14.20;;
47455;SDS011;33202;48.512;-2.780;2023-03-01T16:02:54;23.30;;;14.50;;
47455;SDS011;33202;48.512;-2.780;2023-03-01T16:07:48;19.08;;;14.05;;
47455;SDS011;33202;48.512;-2.780;2023-03-01T16:10:15;18.05;;;13.13;;
47455;SDS011;33202;48.512;-2.780;2023-03-01T16:12:41;19.60;;;12.68;;
47455;SDS011;33202;48.512;-2.780;2023-03-01T16:15:17;17.52;;;13.25;;